createdAt,value
2019-04-26T00:00:00.921Z,40.83
2019-04-26T00:02:52.117Z,40.74
2019-04-26T00:05:33.693Z,40.84
2019-04-26T00:07:52.467Z,40.84
2019-04-26T00:10:43.436Z,41.06
2019-04-26T00:13:34.732Z,41.36
2019-04-26T00:16:26.370Z,41.59
2019-04-26T00:18:55.451Z,41.02
2019-04-26T00:21:24.509Z,41.12
2019-04-26T00:23:53.869Z,41.13
2019-04-26T00:26:23.238Z,40.83
2019-04-26T00:28:52.321Z,40.77
2019-04-26T00:31:21.607Z,40.96
2019-04-26T00:33:50.668Z,40.75
2019-04-26T00:36:20.764Z,40.57
2019-04-26T00:38:49.813Z,40.57
2019-04-26T00:41:20.607Z,40.68
2019-04-26T00:43:50.743Z,40.76
2019-04-26T00:46:22.984Z,40.73
2019-04-26T00:48:54.562Z,40.84
2019-04-26T00:51:24.370Z,41.04
2019-04-26T00:53:54.411Z,41.43
2019-04-26T00:56:24.766Z,42.07
2019-04-26T00:58:54.755Z,42.27
2019-04-26T01:01:26.220Z,43.06
2019-04-26T01:03:55.286Z,43.40
2019-04-26T01:06:26.434Z,43.72
2019-04-26T01:08:55.491Z,44.10
2019-04-26T01:11:24.590Z,44.15
2019-04-26T01:13:53.645Z,44.57
2019-04-26T01:16:22.726Z,44.67
2019-04-26T01:18:53.003Z,44.53
2019-04-26T01:21:24.730Z,44.40
2019-04-26T01:23:56.423Z,44.94
2019-04-26T01:26:30.627Z,45.24
2019-04-26T01:29:10.143Z,45.82
2019-04-26T01:31:50.196Z,46.03
2019-04-26T01:34:20.300Z,46.15
2019-04-26T01:36:51.400Z,46.05
2019-04-26T01:39:21.310Z,45.68
2019-04-26T01:42:13.570Z,45.95
2019-04-26T01:45:09.032Z,46.17
2019-04-26T01:47:39.012Z,46.44
2019-04-26T01:50:09.399Z,46.40
2019-04-26T01:52:38.455Z,46.84
2019-04-26T01:55:09.306Z,47.13
2019-04-26T01:57:39.465Z,47.35
2019-04-26T02:00:22.764Z,47.75
2019-04-26T02:02:56.445Z,47.85
2019-04-26T02:05:26.620Z,47.89
2019-04-26T02:07:55.969Z,47.96
2019-04-26T02:10:26.666Z,48.29
2019-04-26T02:12:57.304Z,48.43
2019-04-26T02:15:29.944Z,48.25
2019-04-26T02:18:00.695Z,48.29
2019-04-26T02:21:18.345Z,48.68
2019-04-26T02:23:54.096Z,49.13
2019-04-26T02:26:37.728Z,49.15
2019-04-26T02:29:10.968Z,49.59
2019-04-26T02:31:42.749Z,49.59
2019-04-26T02:34:13.593Z,49.89
2019-04-26T02:36:57.067Z,50.31
2019-04-26T02:39:22.562Z,50.10
2019-04-26T02:41:54.455Z,50.25
2019-04-26T02:44:30.693Z,50.17
2019-04-26T02:47:35.038Z,50.24
2019-04-26T02:50:07.619Z,50.10
2019-04-26T02:52:59.188Z,49.93
2019-04-26T02:56:12.813Z,49.99
2019-04-26T02:59:08.749Z,50.16
2019-04-26T03:01:38.733Z,50.18
2019-04-26T03:04:08.639Z,50.10
2019-04-26T03:06:41.223Z,50.44
2019-04-26T03:09:14.430Z,50.61
2019-04-26T03:11:46.569Z,50.69
2019-04-26T03:14:46.569Z,50.64
2019-04-26T03:17:26.753Z,51.01
2019-04-26T03:20:02.431Z,51.33
2019-04-26T03:23:00.902Z,51.25
2019-04-26T03:25:43.411Z,51.10
2019-04-26T03:28:44.169Z,51.36
2019-04-26T03:31:29.618Z,51.65
2019-04-26T03:34:13.307Z,51.97
2019-04-26T03:37:29.046Z,51.90
2019-04-26T03:40:26.798Z,51.29
2019-04-26T03:43:20.360Z,51.48
2019-04-26T03:46:20.195Z,51.55
2019-04-26T03:49:26.262Z,51.82
2019-04-26T03:52:14.096Z,51.95
2019-04-26T03:54:45.219Z,52.12
2019-04-26T03:57:37.059Z,52.60
2019-04-26T04:00:37.337Z,52.85
2019-04-26T04:03:50.825Z,52.89
2019-04-26T04:06:26.992Z,53.25
2019-04-26T04:09:02.146Z,54.21
2019-04-26T04:11:43.119Z,54.59
2019-04-26T04:14:34.532Z,54.79
2019-04-26T04:17:22.722Z,55.09
2019-04-26T04:20:15.997Z,55.73
2019-04-26T04:22:49.422Z,56.38
2019-04-26T04:25:24.767Z,56.85
2019-04-26T04:28:04.102Z,57.15
2019-04-26T04:30:49.377Z,57.50
2019-04-26T04:33:40.726Z,57.77
2019-04-26T04:36:16.241Z,58.08
2019-04-26T04:39:12.268Z,58.29
2019-04-26T04:41:57.422Z,58.58
2019-04-26T04:45:22.004Z,58.77
2019-04-26T04:48:34.147Z,58.95
2019-04-26T04:51:38.589Z,59.21
2019-04-26T04:54:16.176Z,59.59
2019-04-26T04:57:09.281Z,59.97
2019-04-26T04:59:54.105Z,60.26
2019-04-26T05:03:06.644Z,60.64
2019-04-26T05:06:06.891Z,61.05
2019-04-26T05:08:54.064Z,61.18
2019-04-26T05:11:32.678Z,61.42
2019-04-26T05:14:14.250Z,61.78
2019-04-26T05:17:27.822Z,61.84
2019-04-26T05:20:38.693Z,62.20
2019-04-26T05:23:25.265Z,62.66
2019-04-26T05:26:50.176Z,63.11
2019-04-26T05:30:09.138Z,63.34
2019-04-26T05:33:09.678Z,63.68
2019-04-26T05:35:58.166Z,63.78
2019-04-26T05:39:00.606Z,63.84
2019-04-26T05:41:59.055Z,64.04
2019-04-26T05:44:46.351Z,63.95
2019-04-26T05:48:03.177Z,64.25
2019-04-26T05:51:25.025Z,64.22
2019-04-26T05:54:44.715Z,64.11
2019-04-26T05:57:36.365Z,64.31
2019-04-26T06:00:30.303Z,64.31
2019-04-26T06:03:37.924Z,64.53
2019-04-26T06:06:31.035Z,64.40
2019-04-26T06:09:30.553Z,64.37
2019-04-26T06:12:07.478Z,64.43
2019-04-26T06:14:58.973Z,64.04
2019-04-26T06:18:10.265Z,64.10
2019-04-26T06:20:52.938Z,64.22
2019-04-26T06:23:53.921Z,63.64
2019-04-26T06:27:14.384Z,63.77
2019-04-26T06:29:53.539Z,63.84
2019-04-26T06:32:29.457Z,63.54
2019-04-26T06:35:08.883Z,63.29
2019-04-26T06:37:57.341Z,63.28
2019-04-26T06:40:42.067Z,63.23
2019-04-26T06:43:26.398Z,63.05
2019-04-26T06:46:59.795Z,62.94
2019-04-26T06:50:05.574Z,62.91
2019-04-26T06:52:39.526Z,62.45
2019-04-26T06:55:28.830Z,62.41
2019-04-26T06:58:29.039Z,62.20
2019-04-26T07:01:13.467Z,61.83
2019-04-26T07:04:09.888Z,61.99
2019-04-26T07:06:50.069Z,61.61
2019-04-26T07:09:21.576Z,61.76
2019-04-26T07:12:38.384Z,61.54
2019-04-26T07:15:43.374Z,61.25
2019-04-26T07:18:30.019Z,61.18
2019-04-26T07:21:20.813Z,60.82
2019-04-26T07:24:30.477Z,60.37
2019-04-26T07:27:36.347Z,60.36
2019-04-26T07:30:39.665Z,60.35
2019-04-26T07:34:03.780Z,59.93
2019-04-26T07:37:09.651Z,59.55
2019-04-26T07:40:22.798Z,59.30
2019-04-26T07:43:23.605Z,58.95
2019-04-26T07:46:42.247Z,58.85
2019-04-26T07:49:48.043Z,59.08
2019-04-26T07:52:55.942Z,59.03
2019-04-26T07:55:55.672Z,58.59
2019-04-26T07:59:08.819Z,58.13
2019-04-26T08:02:05.093Z,58.38
2019-04-26T08:04:40.241Z,58.06
2019-04-26T08:07:13.241Z,57.51
2019-04-26T08:09:59.504Z,57.35
2019-04-26T08:12:22.690Z,57.18
2019-04-26T08:15:40.379Z,56.99
2019-04-26T08:18:21.512Z,57.25
2019-04-26T08:21:15.564Z,57.03
2019-04-26T08:23:57.845Z,56.81
2019-04-26T08:26:30.109Z,56.62
2019-04-26T08:29:02.401Z,56.68
2019-04-26T08:31:33.713Z,56.50
2019-04-26T08:34:08.707Z,56.56
2019-04-26T08:36:46.311Z,56.33
2019-04-26T08:39:32.546Z,55.92
2019-04-26T08:42:00.620Z,55.61
2019-04-26T08:44:46.084Z,54.54
2019-04-26T08:47:34.445Z,54.39
2019-04-26T08:50:12.184Z,54.35
2019-04-26T08:52:42.365Z,54.59
2019-04-26T08:55:12.555Z,54.68
2019-04-26T08:57:44.791Z,54.49
2019-04-26T09:00:41.170Z,53.97
2019-04-26T09:03:35.280Z,53.37
2019-04-26T09:06:15.588Z,53.72
2019-04-26T09:08:46.915Z,53.52
2019-04-26T09:11:25.894Z,53.47
2019-04-26T09:13:51.069Z,53.33
2019-04-26T09:16:21.699Z,53.07
2019-04-26T09:18:54.178Z,53.39
2019-04-26T09:21:31.908Z,53.08
2019-04-26T09:24:21.158Z,53.33
2019-04-26T09:27:20.972Z,53.16
2019-04-26T09:30:19.945Z,53.20
2019-04-26T09:33:04.058Z,53.21
2019-04-26T09:35:33.141Z,52.83
2019-04-26T09:38:02.207Z,52.90
2019-04-26T09:40:32.482Z,52.81
2019-04-26T09:43:16.584Z,52.85
2019-04-26T09:46:07.089Z,52.77
2019-04-26T09:48:40.662Z,51.76
2019-04-26T09:51:09.981Z,52.22
2019-04-26T09:53:39.462Z,51.67
2019-04-26T09:56:09.840Z,52.38
2019-04-26T09:58:38.911Z,52.59
2019-04-26T10:01:07.987Z,52.56
2019-04-26T10:03:37.054Z,52.42
2019-04-26T10:06:08.191Z,52.50
2019-04-26T10:08:37.102Z,51.94
2019-04-26T10:11:09.592Z,51.44
2019-04-26T10:13:53.507Z,50.87
2019-04-26T10:16:47.471Z,50.83
2019-04-26T10:19:21.528Z,50.74
2019-04-26T10:21:50.610Z,50.31
2019-04-26T10:24:19.663Z,50.71
2019-04-26T10:26:48.758Z,50.98
2019-04-26T10:29:17.843Z,49.97
2019-04-26T10:31:47.535Z,49.85
2019-04-26T10:34:17.733Z,49.33
2019-04-26T10:36:47.009Z,48.60
2019-04-26T10:39:17.550Z,49.18
2019-04-26T10:41:46.659Z,49.25
2019-04-26T10:44:15.732Z,49.52
2019-04-26T10:46:55.063Z,49.15
2019-04-26T10:49:40.828Z,48.72
2019-04-26T10:52:15.779Z,49.26
2019-04-26T10:54:47.823Z,49.11
2019-04-26T10:57:21.067Z,48.11
2019-04-26T10:59:53.441Z,47.58
2019-04-26T11:02:22.528Z,47.52
2019-04-26T11:04:51.892Z,48.15
2019-04-26T11:07:20.978Z,47.87
2019-04-26T11:09:50.040Z,46.75
2019-04-26T11:12:19.468Z,46.45
2019-04-26T11:14:48.735Z,46.28
2019-04-26T11:17:17.935Z,46.70
2019-04-26T11:19:46.890Z,46.07
2019-04-26T11:22:28.326Z,46.10
2019-04-26T11:24:50.047Z,45.92
2019-04-26T11:27:17.507Z,45.75
2019-04-26T11:29:53.544Z,45.55
2019-04-26T11:32:17.512Z,45.34
2019-04-26T11:34:46.572Z,44.48
2019-04-26T11:37:17.790Z,44.01
2019-04-26T11:39:46.453Z,44.20
2019-04-26T11:42:15.574Z,44.46
2019-04-26T11:44:44.915Z,44.23
2019-04-26T11:47:13.960Z,43.58
2019-04-26T11:49:43.061Z,43.53
2019-04-26T11:52:12.095Z,43.59
2019-04-26T11:54:41.143Z,43.53
2019-04-26T11:57:12.033Z,42.75
2019-04-26T11:59:40.944Z,42.42
2019-04-26T12:02:12.328Z,42.37
2019-04-26T12:04:49.564Z,42.15
2019-04-26T12:07:27.691Z,41.36
2019-04-26T12:09:58.534Z,41.58
2019-04-26T12:12:27.614Z,41.69
2019-04-26T12:14:56.673Z,40.91
2019-04-26T12:17:27.062Z,41.53
2019-04-26T12:19:56.297Z,42.06
2019-04-26T12:22:25.383Z,42.03
2019-04-26T12:24:54.441Z,42.21
2019-04-26T12:27:26.630Z,42.29
2019-04-26T12:29:54.367Z,42.21
2019-04-26T12:32:23.495Z,41.41
2019-04-26T12:34:52.591Z,41.33
2019-04-26T12:37:21.655Z,41.00
2019-04-26T12:39:50.751Z,41.26
2019-04-26T12:42:19.818Z,41.22
2019-04-26T12:45:02.400Z,41.65
2019-04-26T12:47:41.067Z,41.19
2019-04-26T12:50:10.132Z,41.75
2019-04-26T12:52:39.202Z,42.11
2019-04-26T12:55:08.379Z,42.78
2019-04-26T12:57:40.862Z,43.25
2019-04-26T13:00:08.372Z,43.32
2019-04-26T13:02:37.439Z,43.59
2019-04-26T13:05:07.014Z,42.61
2019-04-26T13:07:38.995Z,42.40
2019-04-26T13:10:38.384Z,42.26
2019-04-26T13:13:24.344Z,42.24
2019-04-26T13:16:12.395Z,42.03
2019-04-26T13:18:45.418Z,41.65
2019-04-26T13:21:12.291Z,42.48
2019-04-26T13:23:41.379Z,42.96
2019-04-26T13:26:10.443Z,42.20
2019-04-26T13:28:39.599Z,42.07
2019-04-26T13:31:08.670Z,41.71
2019-04-26T13:33:37.762Z,41.32
2019-04-26T13:36:06.817Z,41.21
2019-04-26T13:38:39.341Z,41.18
2019-04-26T13:41:07.047Z,41.52
2019-04-26T13:43:36.135Z,41.45
2019-04-26T13:46:27.017Z,41.86
2019-04-26T13:49:17.642Z,42.17
2019-04-26T13:51:45.481Z,42.10
2019-04-26T13:54:16.476Z,42.71
2019-04-26T13:56:45.337Z,42.99
2019-04-26T13:59:14.420Z,43.36
2019-04-26T14:01:43.602Z,43.46
2019-04-26T14:04:12.729Z,43.36
2019-04-26T14:06:41.765Z,43.52
2019-04-26T14:09:13.244Z,43.49
2019-04-26T14:11:42.319Z,43.89
2019-04-26T14:14:11.398Z,44.08
2019-04-26T14:16:40.466Z,44.52
2019-04-26T14:19:14.823Z,44.74
2019-04-26T14:21:40.436Z,44.71
2019-04-26T14:24:23.976Z,44.90
2019-04-26T14:26:56.102Z,45.08
2019-04-26T14:29:28.480Z,45.01
2019-04-26T14:31:56.065Z,45.47
2019-04-26T14:34:25.127Z,45.65
2019-04-26T14:37:05.815Z,45.66
2019-04-26T14:39:38.210Z,46.01
2019-04-26T14:41:57.066Z,46.10
2019-04-26T14:44:27.129Z,46.25
2019-04-26T14:46:57.972Z,46.90
2019-04-26T14:49:38.594Z,47.39
2019-04-26T14:51:57.911Z,47.50
2019-04-26T14:54:26.969Z,47.30
2019-04-26T14:56:59.817Z,47.00
2019-04-26T14:59:52.924Z,47.24
2019-04-26T15:02:41.649Z,46.88
2019-04-26T15:05:17.276Z,47.49
2019-04-26T15:07:51.093Z,47.15
2019-04-26T15:10:18.790Z,47.23
2019-04-26T15:12:52.686Z,47.28
2019-04-26T15:15:18.667Z,47.32
2019-04-26T15:17:47.763Z,47.38
2019-04-26T15:20:20.766Z,46.98
2019-04-26T15:22:49.938Z,47.12
2019-04-26T15:25:18.556Z,47.38
2019-04-26T15:27:47.641Z,47.42
2019-04-26T15:30:16.708Z,47.55
2019-04-26T15:32:45.821Z,46.97
2019-04-26T15:35:17.636Z,47.23
2019-04-26T15:37:45.612Z,47.19
2019-04-26T15:40:31.402Z,47.43
2019-04-26T15:43:14.220Z,47.44
2019-04-26T15:45:52.550Z,47.51
2019-04-26T15:48:43.469Z,47.13
2019-04-26T15:51:12.881Z,46.49
2019-04-26T15:53:44.932Z,46.31
2019-04-26T15:56:16.268Z,46.34
2019-04-26T15:58:47.927Z,46.91
2019-04-26T16:01:14.297Z,47.61
2019-04-26T16:03:44.566Z,48.19
2019-04-26T16:06:13.825Z,48.52
2019-04-26T16:08:44.037Z,48.86
2019-04-26T16:11:13.131Z,48.60
2019-04-26T16:13:45.178Z,49.08
2019-04-26T16:16:12.955Z,49.42
2019-04-26T16:18:43.110Z,49.53
2019-04-26T16:21:17.920Z,49.81
2019-04-26T16:23:50.936Z,49.90
2019-04-26T16:26:15.385Z,49.58
2019-04-26T16:29:18.294Z,49.63
2019-04-26T16:32:16.944Z,49.65
2019-04-26T16:34:47.602Z,50.07
2019-04-26T16:37:21.857Z,50.11
2019-04-26T16:39:48.698Z,50.23
2019-04-26T16:42:17.834Z,50.32
2019-04-26T16:44:46.890Z,50.23
2019-04-26T16:47:15.989Z,50.50
2019-04-26T16:49:46.605Z,50.88
2019-04-26T16:52:15.870Z,50.95
2019-04-26T16:54:44.952Z,50.85
2019-04-26T16:57:14.002Z,50.99
2019-04-26T16:59:47.664Z,51.35
2019-04-26T17:02:16.107Z,51.51
2019-04-26T17:04:44.682Z,51.51
2019-04-26T17:07:14.126Z,51.92
2019-04-26T17:09:57.357Z,52.06
2019-04-26T17:12:16.165Z,52.44
2019-04-26T17:14:48.738Z,52.98
2019-04-26T17:17:16.141Z,53.38
2019-04-26T17:19:45.221Z,53.94
2019-04-26T17:22:23.937Z,54.05
2019-04-26T17:25:23.667Z,54.18
2019-04-26T17:27:47.491Z,53.81
2019-04-26T17:30:20.519Z,53.91
2019-04-26T17:32:51.533Z,54.21
2019-04-26T17:35:20.407Z,54.21
2019-04-26T17:37:50.253Z,54.27
2019-04-26T17:40:23.699Z,54.50
2019-04-26T17:42:51.163Z,54.48
2019-04-26T17:45:21.257Z,53.95
2019-04-26T17:47:50.679Z,53.66
2019-04-26T17:50:21.181Z,52.93
2019-04-26T17:52:51.556Z,52.45
2019-04-26T17:55:20.792Z,52.86
2019-04-26T17:57:50.668Z,53.02
2019-04-26T18:00:28.423Z,52.93
2019-04-26T18:02:55.368Z,53.09
2019-04-26T18:05:41.743Z,53.30
2019-04-26T18:07:58.321Z,53.31
2019-04-26T18:10:26.180Z,53.83
2019-04-26T18:12:55.251Z,53.54
2019-04-26T18:15:24.347Z,53.50
2019-04-26T18:18:05.908Z,53.70
2019-04-26T18:20:52.969Z,53.95
2019-04-26T18:23:23.359Z,54.06
2019-04-26T18:25:52.766Z,54.59
2019-04-26T18:28:22.759Z,55.05
2019-04-26T18:30:53.113Z,55.23
2019-04-26T18:33:25.855Z,55.54
2019-04-26T18:35:55.912Z,55.68
2019-04-26T18:38:24.820Z,55.94
2019-04-26T18:41:01.040Z,56.30
2019-04-26T18:43:24.907Z,56.63
2019-04-26T18:45:58.558Z,57.25
2019-04-26T18:48:26.664Z,58.05
2019-04-26T18:50:55.745Z,58.54
2019-04-26T18:53:53.201Z,59.59
2019-04-26T18:56:23.908Z,59.74
2019-04-26T18:58:55.664Z,60.68
2019-04-26T19:01:23.912Z,61.56
2019-04-26T19:03:54.174Z,62.87
2019-04-26T19:06:30.940Z,63.50
2019-04-26T19:08:57.510Z,64.53
2019-04-26T19:11:24.854Z,66.00
2019-04-26T19:14:22.216Z,66.78
2019-04-26T19:17:16.437Z,67.54
2019-04-26T19:19:59.154Z,68.35
2019-04-26T19:22:28.248Z,69.04
2019-04-26T19:24:57.650Z,69.38
2019-04-26T19:27:27.699Z,69.68
2019-04-26T19:29:56.832Z,70.11
2019-04-26T19:32:25.941Z,70.09
2019-04-26T19:34:55.010Z,70.15
2019-04-26T19:37:24.114Z,70.58
2019-04-26T19:39:53.183Z,70.68
2019-04-26T19:42:22.276Z,71.35
2019-04-26T19:45:09.557Z,71.61
2019-04-26T19:47:44.005Z,71.60
2019-04-26T19:50:24.641Z,72.10
2019-04-26T19:53:03.604Z,72.44
2019-04-26T19:55:41.787Z,72.57
2019-04-26T19:58:16.694Z,72.75
2019-04-26T20:00:46.723Z,72.64
2019-04-26T20:03:16.733Z,72.67
2019-04-26T20:05:46.143Z,72.71
2019-04-26T20:08:15.232Z,72.66
2019-04-26T20:10:45.905Z,72.67
2019-04-26T20:13:16.591Z,72.63
2019-04-26T20:15:46.028Z,72.53
2019-04-26T20:18:17.522Z,72.54
2019-04-26T20:20:45.930Z,72.68
2019-04-26T20:23:15.047Z,72.63
2019-04-26T20:25:44.122Z,72.77
2019-04-26T20:28:14.063Z,72.81
2019-04-26T20:30:57.935Z,72.52
2019-04-26T20:33:26.796Z,72.78
2019-04-26T20:35:57.449Z,72.81
2019-04-26T20:38:26.479Z,73.04
2019-04-26T20:40:55.561Z,73.05
2019-04-26T20:43:26.668Z,73.19
2019-04-26T20:46:10.428Z,73.35
2019-04-26T20:48:30.045Z,73.28
2019-04-26T20:50:57.129Z,73.36
2019-04-26T20:53:26.234Z,73.28
2019-04-26T20:55:55.320Z,73.45
2019-04-26T20:58:24.424Z,73.49
2019-04-26T21:00:54.685Z,73.44
2019-04-26T21:03:27.609Z,73.42
2019-04-26T21:05:59.206Z,73.67
2019-04-26T21:08:26.924Z,73.40
2019-04-26T21:11:00.049Z,73.33
2019-04-26T21:13:30.896Z,73.39
2019-04-26T21:15:58.749Z,73.42
2019-04-26T21:18:28.528Z,73.21
2019-04-26T21:20:57.606Z,73.45
2019-04-26T21:23:26.718Z,73.33
2019-04-26T21:26:14.800Z,73.22
2019-04-26T21:28:51.965Z,73.35
2019-04-26T21:31:30.564Z,73.47
2019-04-26T21:34:03.748Z,73.73
2019-04-26T21:36:53.276Z,73.71
2019-04-26T21:39:50.922Z,73.98
2019-04-26T21:42:21.063Z,74.13
2019-04-26T21:44:52.706Z,74.41
2019-04-26T21:47:23.168Z,74.93
2019-04-26T21:49:58.679Z,75.13
2019-04-26T21:52:27.996Z,75.27
2019-04-26T21:54:56.375Z,75.42
2019-04-26T21:57:27.834Z,75.50
2019-04-26T21:59:55.690Z,75.51
2019-04-26T22:02:29.627Z,75.56
2019-04-26T22:04:56.684Z,75.58
2019-04-26T22:07:25.789Z,75.76
2019-04-26T22:10:14.301Z,75.66
2019-04-26T22:12:45.102Z,75.76
2019-04-26T22:15:25.473Z,75.84
2019-04-26T22:17:57.442Z,75.75
2019-04-26T22:20:57.667Z,75.73
2019-04-26T22:23:51.992Z,75.63
2019-04-26T22:26:23.672Z,75.41
2019-04-26T22:28:53.401Z,75.39
2019-04-26T22:31:23.739Z,75.38
2019-04-26T22:33:55.890Z,75.16
2019-04-26T22:36:27.406Z,75.14
2019-04-26T22:38:55.636Z,74.87
2019-04-26T22:41:28.481Z,74.81
2019-04-26T22:44:15.169Z,74.80
2019-04-26T22:47:03.616Z,74.83
2019-04-26T22:49:36.844Z,74.78
2019-04-26T22:52:06.267Z,74.61
2019-04-26T22:54:37.795Z,74.55
2019-04-26T22:57:08.231Z,74.60
2019-04-26T22:59:38.079Z,74.54
2019-04-26T23:02:08.892Z,74.52
2019-04-26T23:04:37.985Z,74.46
2019-04-26T23:07:08.490Z,74.43
2019-04-26T23:09:37.580Z,74.32
2019-04-26T23:12:28.795Z,74.33
2019-04-26T23:15:15.403Z,74.30
2019-04-26T23:18:09.423Z,74.26
2019-04-26T23:20:57.092Z,74.09
2019-04-26T23:23:26.158Z,74.17
2019-04-26T23:25:55.240Z,74.33
2019-04-26T23:28:27.761Z,74.36
2019-04-26T23:30:55.217Z,74.47
2019-04-26T23:33:24.292Z,74.28
2019-04-26T23:35:53.416Z,74.28
2019-04-26T23:38:23.488Z,74.38
2019-04-26T23:40:52.627Z,74.45
2019-04-26T23:43:25.411Z,74.31
2019-04-26T23:45:53.039Z,74.34
2019-04-26T23:48:22.168Z,74.41
2019-04-26T23:50:51.249Z,74.28
2019-04-26T23:53:21.316Z,74.40
2019-04-26T23:55:50.492Z,74.47
2019-04-26T23:58:19.553Z,74.63
